createdAt,value
2022-07-30T00:02:05.143Z,17.06
2022-07-30T00:06:06.653Z,16.82
2022-07-30T00:10:08.939Z,16.68
2022-07-30T00:14:10.757Z,16.66
2022-07-30T00:18:13.304Z,16.58
2022-07-30T00:22:14.814Z,16.59
2022-07-30T00:26:16.294Z,16.55
2022-07-30T00:30:17.764Z,16.50
2022-07-30T00:34:19.387Z,16.43
2022-07-30T00:38:20.782Z,16.33
2022-07-30T00:42:25.996Z,16.17
2022-07-30T00:46:27.376Z,16.08
2022-07-30T00:50:28.845Z,16.07
2022-07-30T00:54:30.540Z,16.07
2022-07-30T00:58:32.082Z,15.94
2022-07-30T01:02:34.314Z,15.85
2022-07-30T01:06:35.837Z,15.87
2022-07-30T01:10:37.286Z,15.81
2022-07-30T01:14:39.482Z,15.75
2022-07-30T01:19:02.372Z,15.73
2022-07-30T01:23:27.708Z,15.60
2022-07-30T01:27:36.662Z,15.50
2022-07-30T01:31:38.816Z,15.43
2022-07-30T01:35:43.219Z,15.36
2022-07-30T01:39:45.195Z,15.30
2022-07-30T01:43:47.424Z,15.27
2022-07-30T01:47:52.299Z,15.27
2022-07-30T01:51:54.825Z,15.19
2022-07-30T01:55:57.970Z,15.10
2022-07-30T02:00:03.513Z,15.09
2022-07-30T02:04:05.313Z,15.02
2022-07-30T02:08:18.710Z,14.98
2022-07-30T02:12:28.541Z,14.86
2022-07-30T02:16:35.384Z,14.80
2022-07-30T02:20:38.555Z,14.78
2022-07-30T02:24:42.890Z,14.72
2022-07-30T02:28:47.704Z,14.68
2022-07-30T02:32:51.489Z,14.66
2022-07-30T02:36:53.973Z,14.66
2022-07-30T02:40:57.701Z,14.63
2022-07-30T02:45:01.330Z,14.49
2022-07-30T02:49:03.406Z,14.48
2022-07-30T02:53:08.817Z,14.45
2022-07-30T02:57:10.992Z,14.33
2022-07-30T03:01:16.217Z,14.21
2022-07-30T03:05:18.280Z,14.12
2022-07-30T03:09:21.289Z,14.06
2022-07-30T03:13:24.387Z,14.07
2022-07-30T03:17:28.061Z,14.09
2022-07-30T03:21:34.130Z,14.08
2022-07-30T03:25:35.925Z,14.05
2022-07-30T03:29:39.523Z,13.91
2022-07-30T03:33:41.815Z,13.90
2022-07-30T03:37:44.001Z,13.91
2022-07-30T03:41:47.286Z,13.91
2022-07-30T03:45:50.409Z,13.89
2022-07-30T03:49:52.382Z,13.84
2022-07-30T03:53:54.337Z,13.83
2022-07-30T03:57:55.930Z,13.83
2022-07-30T04:02:03.931Z,13.82
2022-07-30T04:06:08.610Z,13.72
2022-07-30T04:10:10.730Z,13.64
2022-07-30T04:14:12.309Z,13.67
2022-07-30T04:18:17.003Z,13.67
2022-07-30T04:22:34.035Z,13.70
2022-07-30T04:26:37.095Z,13.71
2022-07-30T04:30:38.907Z,13.71
2022-07-30T04:34:52.651Z,13.72
2022-07-30T04:38:54.170Z,13.71
2022-07-30T04:42:56.167Z,13.75
2022-07-30T04:46:58.188Z,13.80
2022-07-30T04:51:04.433Z,13.79
2022-07-30T04:55:09.854Z,13.94
2022-07-30T04:59:11.676Z,14.16
2022-07-30T05:03:14.631Z,14.38
2022-07-30T05:07:18.182Z,14.57
2022-07-30T05:11:23.755Z,14.85
2022-07-30T05:15:36.241Z,15.09
2022-07-30T05:19:38.874Z,15.37
2022-07-30T05:23:40.663Z,15.86
2022-07-30T05:27:42.303Z,16.31
2022-07-30T05:31:44.295Z,16.72
2022-07-30T05:35:47.801Z,17.11
2022-07-30T05:39:58.892Z,17.55
2022-07-30T05:44:04.866Z,18.10
2022-07-30T05:48:06.642Z,18.39
2022-07-30T05:52:08.057Z,18.52
2022-07-30T05:56:09.846Z,18.67
2022-07-30T06:00:12.477Z,18.89
2022-07-30T06:04:14.031Z,19.36
2022-07-30T06:08:15.532Z,19.84
2022-07-30T06:12:16.978Z,20.30
2022-07-30T06:16:18.408Z,20.77
2022-07-30T06:20:20.788Z,21.23
2022-07-30T06:24:22.574Z,21.83
2022-07-30T06:28:39.814Z,22.34
2022-07-30T06:32:43.445Z,22.90
2022-07-30T06:36:45.056Z,23.30
2022-07-30T06:40:46.503Z,23.70
2022-07-30T06:44:48.054Z,24.04
2022-07-30T06:48:49.466Z,24.27
2022-07-30T06:52:50.961Z,24.49
2022-07-30T06:56:52.471Z,24.70
2022-07-30T07:00:54.329Z,24.88
2022-07-30T07:04:55.759Z,25.05
2022-07-30T07:08:57.185Z,25.13
2022-07-30T07:13:00.622Z,25.17
2022-07-30T07:17:02.371Z,25.38
2022-07-30T07:21:04.293Z,25.61
2022-07-30T07:25:06.591Z,25.70
2022-07-30T07:29:08.029Z,25.89
2022-07-30T07:33:10.247Z,26.08
2022-07-30T07:37:11.836Z,26.27
2022-07-30T07:41:13.314Z,26.15
2022-07-30T07:45:14.686Z,26.17
2022-07-30T07:49:16.354Z,26.30
2022-07-30T07:53:17.918Z,26.61
2022-07-30T07:57:19.405Z,26.65
2022-07-30T08:01:22.342Z,27.04
2022-07-30T08:05:24.054Z,27.45
2022-07-30T08:09:25.678Z,27.72
2022-07-30T08:13:48.715Z,27.94
2022-07-30T08:17:49.104Z,27.92
2022-07-30T08:21:50.883Z,28.18
2022-07-30T08:25:52.282Z,28.45
2022-07-30T08:29:53.818Z,28.62
2022-07-30T08:33:55.385Z,28.72
2022-07-30T08:37:56.817Z,28.58
2022-07-30T08:41:59.225Z,28.56
2022-07-30T08:46:02.237Z,28.77
2022-07-30T08:50:06.470Z,28.79
2022-07-30T08:54:08.067Z,28.42
2022-07-30T08:58:28.543Z,28.40
2022-07-30T09:02:33.212Z,28.44
2022-07-30T09:06:36.431Z,28.55
2022-07-30T09:10:37.850Z,28.74
2022-07-30T09:14:39.296Z,28.75
2022-07-30T09:18:44.307Z,28.84
2022-07-30T09:22:48.811Z,28.70
2022-07-30T09:27:02.548Z,28.86
2022-07-30T09:31:04.175Z,28.88
2022-07-30T09:35:13.998Z,28.79
2022-07-30T09:39:15.807Z,28.86
2022-07-30T09:43:17.425Z,29.07
2022-07-30T09:47:32.362Z,29.23
2022-07-30T09:51:56.411Z,29.31
2022-07-30T09:55:59.280Z,29.40
2022-07-30T10:00:18.568Z,29.57
2022-07-30T10:04:27.601Z,29.52
2022-07-30T10:08:51.326Z,29.45
2022-07-30T10:13:04.598Z,29.40
2022-07-30T10:17:06.446Z,29.65
2022-07-30T10:21:08.517Z,29.68
2022-07-30T10:25:10.441Z,29.89
2022-07-30T10:29:19.146Z,30.05
2022-07-30T10:33:34.835Z,30.25
2022-07-30T10:37:48.009Z,30.23
2022-07-30T10:42:18.783Z,30.28
2022-07-30T10:46:44.613Z,30.00
2022-07-30T10:50:55.249Z,30.02
2022-07-30T10:54:57.805Z,30.05
2022-07-30T10:59:08.233Z,29.79
2022-07-30T11:03:40.670Z,29.33
2022-07-30T11:07:47.438Z,29.32
2022-07-30T11:12:15.889Z,29.28
2022-07-30T11:16:12.601Z,29.57
2022-07-30T11:20:15.043Z,29.97
2022-07-30T11:24:43.359Z,30.28
2022-07-30T11:28:49.165Z,30.44
2022-07-30T11:32:52.283Z,30.56
2022-07-30T11:37:18.073Z,30.48
2022-07-30T11:41:23.778Z,30.57
2022-07-30T11:45:27.163Z,30.81
2022-07-30T11:49:36.146Z,31.04
2022-07-30T11:53:37.701Z,30.94
2022-07-30T11:57:42.998Z,31.03
2022-07-30T12:01:50.143Z,31.25
2022-07-30T12:05:53.287Z,31.41
2022-07-30T12:10:12.197Z,31.57
2022-07-30T12:14:14.043Z,31.60
2022-07-30T12:18:26.761Z,31.58
2022-07-30T12:22:31.590Z,31.55
2022-07-30T12:26:34.610Z,31.67
2022-07-30T12:30:40.593Z,31.70
2022-07-30T12:34:54.661Z,31.74
2022-07-30T12:38:57.981Z,31.77
2022-07-30T12:42:59.592Z,31.62
2022-07-30T12:47:02.144Z,31.56
2022-07-30T12:51:08.381Z,31.86
2022-07-30T12:55:12.957Z,31.92
2022-07-30T12:59:23.879Z,32.07
2022-07-30T13:03:28.324Z,32.17
2022-07-30T13:07:32.083Z,32.02
2022-07-30T13:11:48.768Z,32.12
2022-07-30T13:16:02.477Z,32.22
2022-07-30T13:20:04.312Z,32.00
2022-07-30T13:24:06.328Z,31.94
2022-07-30T13:28:07.985Z,31.92
2022-07-30T13:32:09.698Z,32.15
2022-07-30T13:36:11.154Z,32.37
2022-07-30T13:40:12.616Z,32.46
2022-07-30T13:44:14.046Z,31.94
2022-07-30T13:48:15.616Z,32.08
2022-07-30T13:52:17.749Z,32.06
2022-07-30T13:56:19.803Z,32.18
2022-07-30T14:00:22.837Z,32.34
2022-07-30T14:04:24.355Z,32.39
2022-07-30T14:08:25.831Z,32.26
2022-07-30T14:12:27.910Z,32.01
2022-07-30T14:16:44.674Z,31.69
2022-07-30T14:20:48.890Z,31.46
2022-07-30T14:24:50.489Z,31.11
2022-07-30T14:28:51.978Z,30.59
2022-07-30T14:32:59.315Z,30.53
2022-07-30T14:37:04.049Z,30.77
2022-07-30T14:41:07.140Z,30.99
2022-07-30T14:45:09.637Z,31.37
2022-07-30T14:49:11.381Z,31.67
2022-07-30T14:53:22.086Z,31.72
2022-07-30T14:57:24.366Z,31.81
2022-07-30T15:01:25.863Z,31.67
2022-07-30T15:05:27.342Z,31.61
2022-07-30T15:09:29.386Z,31.25
2022-07-30T15:13:30.835Z,30.96
2022-07-30T15:17:33.996Z,30.80
2022-07-30T15:21:35.431Z,30.75
2022-07-30T15:25:37.217Z,30.88
2022-07-30T15:29:38.766Z,30.90
2022-07-30T15:33:45.210Z,30.96
2022-07-30T15:37:47.098Z,31.02
2022-07-30T15:41:48.638Z,30.98
2022-07-30T15:45:56.216Z,30.92
2022-07-30T15:49:58.033Z,31.18
2022-07-30T15:53:59.706Z,31.44
2022-07-30T15:58:01.290Z,31.46
2022-07-30T16:02:03.336Z,31.66
2022-07-30T16:06:04.970Z,31.96
2022-07-30T16:10:07.130Z,32.15
2022-07-30T16:14:09.054Z,32.35
2022-07-30T16:18:10.482Z,32.21
2022-07-30T16:22:12.489Z,32.04
2022-07-30T16:26:22.990Z,31.79
2022-07-30T16:30:27.489Z,31.47
2022-07-30T16:34:29.421Z,31.05
2022-07-30T16:38:31.128Z,30.63
2022-07-30T16:42:32.557Z,30.24
2022-07-30T16:46:34.411Z,29.86
2022-07-30T16:50:35.809Z,29.65
2022-07-30T16:54:37.482Z,29.42
2022-07-30T16:58:38.989Z,29.24
2022-07-30T17:02:40.625Z,29.08
2022-07-30T17:06:44.001Z,28.93
2022-07-30T17:10:46.213Z,28.81
2022-07-30T17:14:49.281Z,28.70
2022-07-30T17:18:50.750Z,28.50
2022-07-30T17:22:55.233Z,28.37
2022-07-30T17:26:57.051Z,28.25
2022-07-30T17:30:58.884Z,28.20
2022-07-30T17:35:01.162Z,28.15
2022-07-30T17:39:02.605Z,28.03
2022-07-30T17:43:04.630Z,27.97
2022-07-30T17:47:11.006Z,27.88
2022-07-30T17:51:15.694Z,27.75
2022-07-30T17:55:17.205Z,27.59
2022-07-30T17:59:18.560Z,27.47
2022-07-30T18:03:19.974Z,27.32
2022-07-30T18:07:21.497Z,27.16
2022-07-30T18:11:23.109Z,27.05
2022-07-30T18:15:24.523Z,26.89
2022-07-30T18:19:27.354Z,26.67
2022-07-30T18:23:34.805Z,26.52
2022-07-30T18:27:36.506Z,26.33
2022-07-30T18:31:38.159Z,26.12
2022-07-30T18:35:39.585Z,25.88
2022-07-30T18:39:41.350Z,25.68
2022-07-30T18:43:47.872Z,25.46
2022-07-30T18:47:50.183Z,25.23
2022-07-30T18:51:51.576Z,24.97
2022-07-30T18:55:53.789Z,24.74
2022-07-30T18:59:55.201Z,24.51
2022-07-30T19:03:56.665Z,24.28
2022-07-30T19:07:58.946Z,24.06
2022-07-30T19:12:01.018Z,23.91
2022-07-30T19:16:02.730Z,23.77
2022-07-30T19:20:05.574Z,23.59
2022-07-30T19:24:08.361Z,23.46
2022-07-30T19:28:13.755Z,23.32
2022-07-30T19:32:15.209Z,23.15
2022-07-30T19:36:20.587Z,23.00
2022-07-30T19:40:22.328Z,22.91
2022-07-30T19:44:23.889Z,22.84
2022-07-30T19:48:28.991Z,22.76
2022-07-30T19:52:32.557Z,22.64
2022-07-30T19:56:37.841Z,22.57
2022-07-30T20:00:39.422Z,22.50
2022-07-30T20:04:43.624Z,22.43
2022-07-30T20:08:45.394Z,22.36
2022-07-30T20:12:50.810Z,22.24
2022-07-30T20:16:52.239Z,22.14
2022-07-30T20:20:57.629Z,21.98
2022-07-30T20:24:59.202Z,21.91
2022-07-30T20:29:01.077Z,21.89
2022-07-30T20:33:03.280Z,21.83
2022-07-30T20:37:17.774Z,21.79
2022-07-30T20:41:24.110Z,21.72
2022-07-30T20:45:40.386Z,21.66
2022-07-30T20:49:42.189Z,21.49
2022-07-30T20:53:45.421Z,21.29
2022-07-30T20:58:00.338Z,21.27
2022-07-30T21:02:09.827Z,21.30
2022-07-30T21:06:16.827Z,21.27
2022-07-30T21:10:19.200Z,21.24
2022-07-30T21:14:25.458Z,21.18
2022-07-30T21:18:27.007Z,21.06
2022-07-30T21:22:28.469Z,20.94
2022-07-30T21:26:30.047Z,20.90
2022-07-30T21:30:33.318Z,20.89
2022-07-30T21:34:40.262Z,20.85
2022-07-30T21:38:43.750Z,20.74
2022-07-30T21:42:48.348Z,20.73
2022-07-30T21:46:50.539Z,20.68
2022-07-30T21:50:53.258Z,20.70
2022-07-30T21:54:55.006Z,20.70
2022-07-30T21:58:57.128Z,20.57
2022-07-30T22:02:58.437Z,20.53
2022-07-30T22:07:02.313Z,20.41
2022-07-30T22:11:04.098Z,20.35
2022-07-30T22:15:10.602Z,20.40
2022-07-30T22:19:17.258Z,20.41
2022-07-30T22:23:20.133Z,20.39
2022-07-30T22:27:21.966Z,20.31
2022-07-30T22:31:23.590Z,20.15
2022-07-30T22:35:32.412Z,20.07
2022-07-30T22:39:51.487Z,19.94
2022-07-30T22:43:54.176Z,19.78
2022-07-30T22:47:55.785Z,19.71
2022-07-30T22:52:05.027Z,19.65
2022-07-30T22:56:23.951Z,19.60
2022-07-30T23:00:27.178Z,19.50
2022-07-30T23:04:30.333Z,19.35
2022-07-30T23:08:34.468Z,19.19
2022-07-30T23:12:36.263Z,19.17
2022-07-30T23:16:38.839Z,19.12
2022-07-30T23:20:40.449Z,19.13
2022-07-30T23:24:42.342Z,19.06
2022-07-30T23:28:43.970Z,19.05
2022-07-30T23:32:53.919Z,18.93
2022-07-30T23:36:55.388Z,18.86
2022-07-30T23:41:01.213Z,18.87
2022-07-30T23:45:03.017Z,18.86
2022-07-30T23:49:04.996Z,18.79
2022-07-30T23:53:06.481Z,18.78
2022-07-30T23:57:07.950Z,18.75
